createdAt,value
2018-12-15T00:00:06.918Z,11.70
2018-12-15T00:03:31.675Z,10.73
2018-12-15T00:06:56.379Z,10.77
2018-12-15T00:10:21.151Z,12.30
2018-12-15T00:13:45.863Z,12.23
2018-12-15T00:17:10.620Z,12.70
2018-12-15T00:20:35.355Z,12.90
2018-12-15T00:24:00.118Z,12.67
2018-12-15T00:27:24.825Z,11.40
2018-12-15T00:30:49.653Z,11.60
2018-12-15T00:34:14.378Z,10.50
2018-12-15T00:37:39.173Z,12.33
2018-12-15T00:41:04.179Z,12.20
2018-12-15T00:44:28.918Z,13.37
2018-12-15T00:47:53.568Z,11.23
2018-12-15T00:51:18.643Z,11.67
2018-12-15T00:54:43.359Z,10.70
2018-12-15T00:58:08.033Z,12.40
2018-12-15T01:01:32.729Z,11.73
2018-12-15T01:04:57.406Z,10.80
2018-12-15T01:08:22.077Z,11.40
2018-12-15T01:11:46.780Z,11.10
2018-12-15T01:15:11.431Z,10.17
2018-12-15T01:18:36.085Z,11.00
2018-12-15T01:22:00.727Z,10.53
2018-12-15T01:25:25.404Z,8.73
2018-12-15T01:28:50.055Z,7.93
2018-12-15T01:32:14.839Z,8.10
2018-12-15T01:35:39.644Z,9.60
2018-12-15T01:39:06.695Z,8.17
2018-12-15T01:42:31.378Z,9.30
2018-12-15T01:45:56.209Z,10.13
2018-12-15T01:49:21.029Z,9.23
2018-12-15T01:52:45.752Z,10.97
2018-12-15T01:56:10.415Z,9.37
2018-12-15T01:59:35.121Z,9.87
2018-12-15T02:02:59.856Z,11.30
2018-12-15T02:06:24.544Z,10.17
2018-12-15T02:09:49.180Z,11.20
2018-12-15T02:13:13.894Z,9.30
2018-12-15T02:16:38.616Z,9.70
2018-12-15T02:20:03.726Z,10.07
2018-12-15T02:23:28.482Z,9.30
2018-12-15T02:26:53.329Z,9.80
2018-12-15T02:30:18.000Z,10.47
2018-12-15T02:33:42.746Z,10.40
2018-12-15T02:37:07.461Z,8.93
2018-12-15T02:40:32.199Z,10.07
2018-12-15T02:43:57.039Z,9.33
2018-12-15T02:47:21.770Z,10.43
2018-12-15T02:50:46.555Z,10.30
2018-12-15T02:54:11.216Z,10.83
2018-12-15T02:57:35.921Z,10.10
2018-12-15T03:01:00.755Z,10.07
2018-12-15T03:04:25.518Z,8.97
2018-12-15T03:11:54.835Z,10.33
2018-12-15T03:15:19.470Z,10.67
2018-12-15T03:18:44.116Z,11.97
2018-12-15T03:22:08.769Z,11.23
2018-12-15T03:25:33.431Z,11.70
2018-12-15T03:28:58.093Z,10.80
2018-12-15T03:32:22.813Z,11.53
2018-12-15T03:35:47.470Z,11.43
2018-12-15T03:39:12.139Z,12.80
2018-12-15T03:42:36.843Z,12.20
2018-12-15T03:46:01.570Z,12.17
2018-12-15T03:49:26.256Z,11.83
2018-12-15T03:52:50.942Z,12.03
2018-12-15T03:56:15.604Z,12.47
2018-12-15T03:59:40.463Z,12.73
2018-12-15T04:03:05.191Z,13.30
2018-12-15T04:06:29.932Z,13.17
2018-12-15T04:09:54.604Z,13.70
2018-12-15T04:13:19.294Z,14.40
2018-12-15T04:16:44.024Z,12.43
2018-12-15T04:20:08.730Z,12.80
2018-12-15T04:23:33.410Z,13.47
2018-12-15T04:26:58.084Z,11.83
2018-12-15T04:30:22.719Z,11.93
2018-12-15T04:33:47.367Z,11.87
2018-12-15T04:37:11.996Z,11.77
2018-12-15T04:40:36.907Z,12.07
2018-12-15T04:44:01.790Z,11.70
2018-12-15T04:47:26.668Z,12.77
2018-12-15T04:50:51.354Z,11.73
2018-12-15T04:54:16.017Z,13.57
2018-12-15T04:57:40.758Z,12.43
2018-12-15T05:01:05.476Z,13.50
2018-12-15T05:04:30.278Z,11.77
2018-12-15T05:07:55.025Z,11.93
2018-12-15T05:11:19.737Z,10.90
2018-12-15T05:14:44.483Z,12.20
2018-12-15T05:18:09.240Z,12.50
2018-12-15T05:21:33.914Z,10.77
2018-12-15T05:24:58.896Z,10.93
2018-12-15T05:28:23.706Z,10.93
2018-12-15T05:31:48.413Z,10.87
2018-12-15T05:35:13.120Z,11.40
2018-12-15T05:38:37.798Z,11.97
2018-12-15T05:42:02.520Z,10.67
2018-12-15T05:45:27.196Z,11.70
2018-12-15T05:48:51.846Z,11.57
2018-12-15T05:52:16.557Z,10.77
2018-12-15T05:55:41.259Z,11.70
2018-12-15T05:59:05.997Z,11.40
2018-12-15T06:02:31.054Z,11.83
2018-12-15T06:05:55.669Z,11.03
2018-12-15T06:09:20.379Z,11.60
2018-12-15T06:12:45.088Z,12.60
2018-12-15T06:16:09.767Z,12.37
2018-12-15T06:19:34.466Z,11.77
2018-12-15T06:22:59.133Z,13.33
2018-12-15T06:26:23.868Z,12.50
2018-12-15T06:29:48.522Z,11.43
2018-12-15T06:33:13.411Z,12.13
2018-12-15T06:36:38.876Z,12.37
2018-12-15T06:40:03.730Z,12.60
2018-12-15T06:43:28.992Z,11.37
2018-12-15T06:46:53.724Z,12.17
2018-12-15T06:50:18.435Z,10.77
2018-12-15T06:53:43.083Z,11.97
2018-12-15T06:57:08.020Z,11.97
2018-12-15T07:00:32.877Z,11.80
2018-12-15T07:03:57.531Z,10.73
2018-12-15T07:07:22.526Z,12.60
2018-12-15T07:10:47.284Z,12.17
2018-12-15T07:14:12.060Z,13.70
2018-12-15T07:17:37.417Z,12.93
2018-12-15T07:21:02.322Z,11.57
2018-12-15T07:24:26.986Z,12.57
2018-12-15T07:27:51.708Z,12.70
2018-12-15T07:31:16.611Z,13.33
2018-12-15T07:34:41.292Z,13.00
2018-12-15T07:38:06.035Z,13.23
2018-12-15T07:41:30.851Z,13.40
2018-12-15T07:44:55.543Z,13.00
2018-12-15T07:48:24.792Z,12.80
2018-12-15T07:51:49.572Z,13.00
2018-12-15T07:55:14.413Z,13.13
2018-12-15T07:58:39.127Z,14.40
2018-12-15T08:05:40.240Z,14.50
2018-12-15T08:09:07.842Z,14.93
2018-12-15T08:12:42.045Z,12.40
2018-12-15T08:16:06.884Z,13.83
2018-12-15T08:19:31.676Z,13.43
2018-12-15T08:22:56.537Z,13.57
2018-12-15T08:26:21.235Z,13.80
2018-12-15T08:29:45.941Z,13.77
2018-12-15T08:33:10.672Z,12.40
2018-12-15T08:36:35.354Z,14.57
2018-12-15T08:40:00.044Z,14.20
2018-12-15T08:43:24.699Z,14.70
2018-12-15T08:46:49.466Z,14.73
2018-12-15T08:50:14.100Z,15.27
2018-12-15T08:53:38.836Z,13.67
2018-12-15T08:57:03.570Z,13.13
2018-12-15T09:00:28.340Z,15.13
2018-12-15T09:03:53.007Z,14.53
2018-12-15T09:07:17.775Z,16.27
2018-12-15T09:10:42.516Z,14.90
2018-12-15T09:14:07.353Z,14.53
2018-12-15T09:17:32.153Z,15.27
2018-12-15T09:20:56.875Z,15.07
2018-12-15T09:24:22.174Z,15.40
2018-12-15T09:27:46.911Z,16.13
2018-12-15T09:31:11.633Z,14.80
2018-12-15T09:34:36.320Z,14.47
2018-12-15T09:38:01.090Z,15.63
2018-12-15T09:45:03.580Z,14.97
2018-12-15T09:48:28.280Z,16.57
2018-12-15T09:51:52.923Z,16.37
2018-12-15T09:55:17.631Z,16.47
2018-12-15T09:58:42.326Z,16.40
2018-12-15T10:02:07.427Z,15.90
2018-12-15T10:05:32.168Z,16.83
2018-12-15T10:08:56.870Z,14.90
2018-12-15T10:12:21.602Z,16.47
2018-12-15T10:15:46.423Z,16.50
2018-12-15T10:19:11.086Z,17.23
2018-12-15T10:22:35.882Z,16.33
2018-12-15T10:26:00.693Z,17.23
2018-12-15T10:29:30.463Z,16.50
2018-12-15T10:32:55.183Z,17.70
2018-12-15T10:36:19.864Z,17.27
2018-12-15T10:39:44.560Z,22.73
2018-12-15T10:43:09.387Z,18.67
2018-12-15T10:46:34.055Z,16.93
2018-12-15T10:49:59.446Z,16.20
2018-12-15T10:53:31.799Z,15.40
2018-12-15T10:56:56.581Z,15.87
2018-12-15T11:00:29.369Z,15.60
2018-12-15T11:08:14.249Z,14.90
2018-12-15T11:11:39.053Z,14.97
2018-12-15T11:15:03.834Z,14.43
2018-12-15T11:18:30.720Z,15.83
2018-12-15T11:21:55.367Z,14.17
2018-12-15T11:25:20.132Z,14.30
2018-12-15T11:28:44.866Z,13.73
2018-12-15T11:32:09.648Z,14.40
2018-12-15T11:35:34.316Z,13.83
2018-12-15T11:38:59.025Z,15.87
2018-12-15T11:42:23.692Z,15.20
2018-12-15T11:45:48.476Z,12.93
2018-12-15T11:49:13.224Z,15.83
2018-12-15T11:52:37.960Z,13.83
2018-12-15T11:56:02.736Z,14.00
2018-12-15T11:59:27.481Z,14.17
2018-12-15T12:02:52.800Z,14.07
2018-12-15T12:06:17.539Z,15.23
2018-12-15T12:09:42.413Z,14.67
2018-12-15T12:13:07.805Z,14.77
2018-12-15T12:16:32.702Z,14.10
2018-12-15T12:19:57.450Z,15.97
2018-12-15T12:23:22.232Z,17.80
2018-12-15T12:26:47.086Z,15.20
2018-12-15T12:30:12.019Z,15.17
2018-12-15T12:33:36.825Z,14.73
2018-12-15T12:37:02.253Z,14.27
2018-12-15T12:40:26.993Z,13.83
2018-12-15T12:43:51.777Z,15.03
2018-12-15T12:47:16.663Z,14.40
2018-12-15T12:50:41.340Z,15.63
2018-12-15T12:54:07.106Z,12.77
2018-12-15T12:57:31.847Z,13.70
2018-12-15T13:00:56.776Z,13.07
2018-12-15T13:04:21.560Z,14.27
2018-12-15T13:07:46.308Z,13.50
2018-12-15T13:11:11.873Z,14.13
2018-12-15T13:14:41.855Z,12.47
2018-12-15T13:18:12.223Z,13.23
2018-12-15T13:21:36.984Z,14.13
2018-12-15T13:25:01.717Z,12.80
2018-12-15T13:28:29.430Z,13.33
2018-12-15T13:31:54.847Z,14.57
2018-12-15T13:35:19.625Z,13.53
2018-12-15T13:38:45.709Z,12.93
2018-12-15T13:42:10.714Z,13.90
2018-12-15T13:45:35.461Z,15.07
2018-12-15T13:49:00.252Z,14.87
2018-12-15T13:52:24.965Z,15.13
2018-12-15T13:55:49.771Z,14.07
2018-12-15T13:59:14.603Z,14.03
2018-12-15T14:02:39.322Z,16.83
2018-12-15T14:06:04.053Z,14.03
2018-12-15T14:09:28.720Z,15.40
2018-12-15T14:12:53.435Z,15.13
2018-12-15T14:16:18.130Z,13.47
2018-12-15T14:19:42.808Z,15.10
2018-12-15T14:23:07.423Z,15.70
2018-12-15T14:26:32.181Z,12.93
2018-12-15T14:29:56.892Z,14.97
2018-12-15T14:33:21.615Z,12.83
2018-12-15T14:36:46.380Z,13.53
2018-12-15T14:40:11.200Z,13.97
2018-12-15T14:43:35.914Z,13.93
2018-12-15T14:47:00.745Z,13.57
2018-12-15T14:50:25.480Z,13.67
2018-12-15T14:53:50.212Z,16.73
2018-12-15T14:57:17.198Z,15.80
2018-12-15T15:00:41.860Z,13.30
2018-12-15T15:04:06.593Z,13.20
2018-12-15T15:07:31.542Z,14.53
2018-12-15T15:10:56.267Z,13.07
2018-12-15T15:14:21.478Z,15.47
2018-12-15T15:17:46.266Z,16.53
2018-12-15T15:21:11.133Z,13.90
2018-12-15T15:24:35.886Z,15.07
2018-12-15T15:28:00.613Z,13.83
2018-12-15T15:31:25.287Z,13.57
2018-12-15T15:34:50.032Z,15.77
2018-12-15T15:38:14.821Z,14.17
2018-12-15T15:41:39.601Z,12.63
2018-12-15T15:45:04.725Z,13.97
2018-12-15T15:48:29.453Z,15.50
2018-12-15T15:51:54.217Z,13.60
2018-12-15T15:55:18.909Z,13.47
2018-12-15T15:58:43.570Z,14.50
2018-12-15T16:02:08.573Z,15.47
2018-12-15T16:05:33.405Z,14.13
2018-12-15T16:08:58.466Z,15.83
2018-12-15T16:12:23.108Z,15.30
2018-12-15T16:15:47.852Z,15.43
2018-12-15T16:19:12.530Z,15.80
2018-12-15T16:22:37.225Z,16.67
2018-12-15T16:26:01.926Z,14.23
2018-12-15T16:29:26.618Z,14.43
2018-12-15T16:32:51.363Z,14.37
2018-12-15T16:36:16.067Z,15.73
2018-12-15T16:39:40.796Z,16.03
2018-12-15T16:43:05.798Z,14.73
2018-12-15T16:46:31.023Z,15.07
2018-12-15T16:49:55.780Z,15.40
2018-12-15T16:53:20.525Z,16.37
2018-12-15T16:56:45.256Z,16.13
2018-12-15T17:00:15.259Z,14.10
2018-12-15T17:03:39.951Z,14.07
2018-12-15T17:07:04.814Z,15.07
2018-12-15T17:10:29.543Z,16.07
2018-12-15T17:13:54.248Z,14.00
2018-12-15T17:17:19.046Z,15.70
2018-12-15T17:20:43.828Z,15.27
2018-12-15T17:24:08.656Z,15.93
2018-12-15T17:27:34.013Z,15.73
2018-12-15T17:30:58.828Z,16.03
2018-12-15T17:34:23.518Z,14.57
2018-12-15T17:37:48.221Z,14.27
2018-12-15T17:41:12.933Z,14.90
2018-12-15T17:44:37.862Z,15.70
2018-12-15T17:48:03.008Z,15.70
2018-12-15T17:51:27.815Z,14.87
2018-12-15T17:54:52.763Z,15.43
2018-12-15T17:58:17.527Z,16.27
2018-12-15T18:01:42.273Z,14.80
2018-12-15T18:05:07.329Z,16.60
2018-12-15T18:08:32.115Z,15.53
2018-12-15T18:11:56.970Z,17.23
2018-12-15T18:15:21.735Z,17.90
2018-12-15T18:18:46.684Z,19.27
2018-12-15T18:22:11.495Z,16.50
2018-12-15T18:25:36.169Z,16.03
2018-12-15T18:29:00.888Z,14.93
2018-12-15T18:32:25.807Z,17.00
2018-12-15T18:35:50.504Z,18.63
2018-12-15T18:39:16.432Z,15.77
2018-12-15T18:42:41.156Z,16.43
2018-12-15T18:46:06.046Z,16.27
2018-12-15T18:49:30.825Z,17.80
2018-12-15T18:52:55.746Z,15.70
2018-12-15T18:56:20.750Z,17.97
2018-12-15T18:59:45.559Z,15.00
2018-12-15T19:03:10.366Z,15.57
2018-12-15T19:06:37.249Z,15.63
2018-12-15T19:24:06.740Z,16.67
2018-12-15T19:31:05.239Z,17.10
2018-12-15T19:34:30.350Z,16.83
2018-12-15T19:37:56.222Z,18.27
2018-12-15T19:41:21.354Z,18.67
2018-12-15T19:44:47.072Z,16.10
2018-12-15T19:48:12.897Z,17.73
2018-12-15T19:51:38.949Z,16.00
2018-12-15T19:55:03.674Z,18.10
2018-12-15T19:58:29.090Z,17.77
2018-12-15T20:01:54.103Z,17.67
2018-12-15T20:05:19.983Z,17.03
2018-12-15T20:08:46.714Z,17.63
2018-12-15T20:12:30.090Z,15.90
2018-12-15T20:20:02.482Z,16.97
2018-12-15T20:23:27.492Z,17.90
2018-12-15T20:26:54.867Z,17.10
2018-12-15T20:30:20.709Z,16.93
2018-12-15T20:33:53.296Z,18.33
2018-12-15T20:37:17.982Z,17.57
2018-12-15T20:40:43.804Z,18.00
2018-12-15T20:44:10.731Z,16.87
2018-12-15T20:47:36.136Z,18.60
2018-12-15T20:51:01.844Z,19.83
2018-12-15T20:54:26.583Z,17.27
2018-12-15T20:57:51.292Z,19.17
2018-12-15T21:04:50.936Z,18.63
2018-12-15T21:08:15.715Z,18.70
2018-12-15T21:11:41.201Z,17.17
2018-12-15T21:15:16.391Z,18.50
2018-12-15T21:18:41.135Z,16.80
2018-12-15T21:22:11.383Z,20.33
2018-12-15T21:25:36.052Z,18.80
2018-12-15T21:29:00.774Z,17.33
2018-12-15T21:32:25.652Z,18.40
2018-12-15T21:35:50.362Z,18.70
2018-12-15T21:39:15.052Z,18.50
2018-12-15T21:42:39.760Z,17.27
2018-12-15T21:46:04.587Z,17.17
2018-12-15T21:49:29.304Z,17.60
2018-12-15T21:52:54.140Z,20.90
2018-12-15T21:56:18.972Z,16.87
2018-12-15T21:59:43.773Z,17.17
2018-12-15T22:03:08.464Z,18.17
2018-12-15T22:06:33.217Z,17.60
2018-12-15T22:09:57.927Z,19.33
2018-12-15T22:13:22.742Z,17.83
2018-12-15T22:16:47.525Z,16.53
2018-12-15T22:20:12.521Z,16.93
2018-12-15T22:23:37.290Z,17.10
2018-12-15T22:27:02.067Z,16.63
2018-12-15T22:30:26.828Z,17.47
2018-12-15T22:33:51.601Z,18.20
2018-12-15T22:37:16.590Z,17.57
2018-12-15T22:40:41.366Z,17.93
2018-12-15T22:44:07.822Z,16.80
2018-12-15T22:47:32.593Z,17.00
2018-12-15T22:51:12.464Z,18.63
2018-12-15T22:54:37.243Z,19.03
2018-12-15T22:58:02.011Z,17.80
2018-12-15T23:01:26.835Z,15.40
2018-12-15T23:04:52.447Z,17.33
2018-12-15T23:08:17.561Z,18.80
2018-12-15T23:11:42.536Z,17.07
2018-12-15T23:15:08.917Z,15.53
2018-12-15T23:18:33.759Z,15.70
2018-12-15T23:21:58.733Z,16.00
2018-12-15T23:25:23.580Z,18.43
2018-12-15T23:28:48.424Z,17.17
2018-12-15T23:32:13.487Z,17.00
2018-12-15T23:35:38.369Z,20.88
2018-12-15T23:39:03.771Z,16.80
2018-12-15T23:42:28.500Z,16.23
2018-12-15T23:45:53.259Z,18.63
2018-12-15T23:49:17.990Z,19.23
2018-12-15T23:52:42.735Z,20.87
2018-12-15T23:56:07.485Z,18.63
2018-12-15T23:59:32.257Z,18.90
